Prt Vega — HOQL — position and weather

sailwx.info

Track history (hours):
 
Tides and Currents Weather Stations Pressure Air Temp Water Temp Dewpoint Dewpoint Depression Visibility Wind Speed Wind Dir Waves Ship Positions

Prt Vega

Last reported at 2018-Jun-18 16:58 UTC. Time now 2018-Jul-20 16:39 UTC.
Position S 34°18' E 017°36'.
Warning: this ship's position is 31 days out of date.

Length 199 m; draft 9.6 m.

Type: Cargo ship. MMSI: 374946000.

Date/timePositionNaut miles runAvg speedWind from/ knotsBaromVisibWave heightAir tempDewpointWater temp
2018-Jun-18 16:58S 34°18' E 017°36'5 9.6
2018-Jun-18 16:26S 34°21' E 017°42'4 9.5
2018-Jun-18 16:01S 34°22' E 017°46'5 9.2
2018-Jun-18 15:30S 34°24' E 017°51'5 9.4
2018-Jun-18 14:57S 34°26' E 017°57'5 9.5
2018-Jun-18 14:23S 34°29' E 018°03'4 9.2
2018-Jun-18 13:59S 34°30' E 018°07'5 9.1
2018-Jun-18 13:28S 34°32' E 018°12'5 8.8
2018-Jun-18 12:55S 34°34' E 018°18'4 8.7
2018-Jun-18 12:30S 34°35' E 018°22'4 8.7
2018-Jun-18 12:00S 34°37' E 018°26'5 8.9
2018-Jun-18 11:24S 34°39' E 018°32'4 9.1
2018-Jun-18 11:00S 34°41' E 018°36'5 9.3
2018-Jun-18 10:30S 34°43' E 018°41'5 9.1
2018-Jun-18 10:00S 34°45' E 018°47'  
2018-Jun-14 03:21S 30°58' E 030°40'514.1
2018-Jun-14 02:58S 30°53' E 030°44'714.3
2018-Jun-14 02:30S 30°48' E 030°49'714.4
2018-Jun-14 02:00S 30°43' E 030°55'714.3
2018-Jun-14 01:30S 30°37' E 031°00'714.3
2018-Jun-14 01:00S 30°32' E 031°05'714.4
2018-Jun-14 00:30S 30°26' E 031°11'714.5
2018-Jun-14 00:00S 30°21' E 031°16'714.4
2018-Jun-13 23:30S 30°15' E 031°22'713.9
2018-Jun-13 23:00S 30°10' E 031°27'714.0
2018-Jun-13 22:31S 30°05' E 031°32'713.7
2018-Jun-13 22:00S 29°60' E 031°37'714.0
2018-Jun-13 21:30S 29°54' E 031°42'714.0
2018-Jun-13 21:01S 29°49' E 031°47'714.0
2018-Jun-13 20:30S 29°42' E 031°51'713.6
2018-Jun-13 20:00S 29°37' E 031°55'713.7
2018-Jun-13 19:30S 29°30' E 031°58'713.7
2018-Jun-13 19:01S 29°24' E 032°02'714.0
2018-Jun-13 18:30S 29°18' E 032°06'713.9
2018-Jun-13 18:01S 29°12' E 032°09'714.0
2018-Jun-13 17:30S 29°06' E 032°13'1213.4
2018-Jun-13 16:35S 28°53' E 032°14'11 9.1
2018-Jun-13 15:21S 28°48' E 032°03'0 0.7
2018-Jun-13 14:53S 28°48' E 032°03'0 0.0
2018-Jun-13 14:17S 28°48' E 032°03'0 0.0
2018-Jun-13 13:41S 28°48' E 032°03'0 0.0
2018-Jun-13 13:20S 28°48' E 032°03'0 0.0
2018-Jun-13 12:56S 28°48' E 032°03'0 0.0
2018-Jun-13 12:29S 28°48' E 032°03'0 0.0
2018-Jun-13 11:59S 28°48' E 032°03'0 0.0
2018-Jun-13 11:23S 28°48' E 032°03'0 0.0
2018-Jun-13 08:17S 28°48' E 032°03'0 0.0
2018-Jun-13 03:20S 28°48' E 032°03'0 0.0
2018-Jun-13 02:59S 28°48' E 032°03'0 0.0
2018-Jun-13 02:05S 28°48' E 032°03'0 0.0
2018-Jun-13 01:47S 28°48' E 032°03'0 0.0
2018-Jun-13 01:20S 28°48' E 032°03'0 0.0
2018-Jun-13 00:59S 28°48' E 032°03'0 0.0
2018-Jun-13 00:23S 28°48' E 032°03'0 0.0
2018-Jun-12 23:59S 28°48' E 032°03'0 0.0
2018-Jun-12 23:05S 28°48' E 032°03'0 0.0
2018-Jun-12 22:53S 28°48' E 032°03'0 0.0
2018-Jun-12 22:29S 28°48' E 032°03'0 0.0
2018-Jun-12 21:59S 28°48' E 032°03'0 0.0
2018-Jun-12 20:08S 28°48' E 032°03'0 0.0
2018-Jun-12 19:56S 28°48' E 032°03'0 0.0
2018-Jun-12 16:59S 28°48' E 032°03'0 0.0
2018-Jun-12 16:23S 28°48' E 032°03'0 0.0
2018-Jun-12 15:41S 28°48' E 032°03'0 0.0
2018-Jun-12 15:29S 28°48' E 032°03'0 0.0
2018-Jun-12 14:50S 28°48' E 032°03'0 0.0
2018-Jun-12 14:23S 28°48' E 032°03'0 0.0
2018-Jun-12 13:59S 28°48' E 032°03'  
2018-Jun-10 03:50S 28°54' E 032°06'0 0.1
2018-Jun-10 03:29S 28°54' E 032°06'0 0.0
2018-Jun-10 02:44S 28°54' E 032°06'0 0.0
2018-Jun-10 02:08S 28°54' E 032°06'0 0.2
2018-Jun-10 01:59S 28°54' E 032°06'0 0.2
2018-Jun-10 01:26S 28°54' E 032°06'0 0.1
2018-Jun-10 00:56S 28°54' E 032°06'0 0.0
2018-Jun-10 00:29S 28°54' E 032°06'0 0.1
2018-Jun-09 23:59S 28°54' E 032°06'0 0.1
2018-Jun-09 23:29S 28°54' E 032°06'0 0.0
2018-Jun-09 22:59S 28°54' E 032°06'0 0.0
2018-Jun-09 22:26S 28°54' E 032°06'0 0.1
2018-Jun-09 21:56S 28°54' E 032°06'0 0.0
2018-Jun-09 21:26S 28°54' E 032°06'0 0.0
2018-Jun-09 20:59S 28°54' E 032°06'0 0.0
2018-Jun-09 20:29S 28°54' E 032°06'0 0.0
2018-Jun-09 19:59S 28°54' E 032°06'0 0.0
2018-Jun-09 19:29S 28°54' E 032°06'0 0.0
2018-Jun-09 18:59S 28°54' E 032°06'0 0.0
2018-Jun-09 18:29S 28°54' E 032°06'0 0.0
2018-Jun-09 17:59S 28°54' E 032°06'0 0.0
2018-Jun-09 17:29S 28°54' E 032°06'0 0.0
2018-Jun-09 16:59S 28°54' E 032°06'0 0.0
2018-Jun-09 16:29S 28°54' E 032°06'0 0.0
2018-Jun-09 15:56S 28°54' E 032°06'0 0.0
2018-Jun-09 15:29S 28°54' E 032°06'0 0.0
2018-Jun-09 14:29S 28°54' E 032°06'0 0.0
2018-Jun-09 13:56S 28°54' E 032°06'0 0.0
2018-Jun-09 13:29S 28°54' E 032°06'0 0.0
2018-Jun-09 12:59S 28°54' E 032°06'0 0.0
2018-Jun-09 12:26S 28°54' E 032°06'0 0.0
2018-Jun-09 11:56S 28°54' E 032°06'0 0.0
2018-Jun-09 11:29S 28°54' E 032°06'0 0.0
2018-Jun-09 10:59S 28°54' E 032°06'0 0.0
2018-Jun-09 10:29S 28°54' E 032°06'0 0.0
2018-Jun-09 09:59S 28°54' E 032°06'0 0.0
2018-Jun-09 09:29S 28°54' E 032°06'0 0.0
2018-Jun-09 08:56S 28°54' E 032°06'0 0.1
2018-Jun-09 08:29S 28°54' E 032°06'0 0.0
2018-Jun-09 07:59S 28°54' E 032°06'0 0.0
2018-Jun-09 07:29S 28°54' E 032°06'0 0.0
2018-Jun-09 06:59S 28°54' E 032°06'0 0.0
2018-Jun-09 06:29S 28°54' E 032°06'0 0.0
2018-Jun-09 05:59S 28°54' E 032°06'0 0.0
2018-Jun-09 05:29S 28°54' E 032°06'0 0.0
2018-Jun-09 04:50S 28°54' E 032°06'0 0.1
2018-Jun-09 04:29S 28°54' E 032°06'0 0.1
2018-Jun-09 03:59S 28°54' E 032°06'0 0.0
2018-Jun-09 03:29S 28°54' E 032°06'0 0.0
2018-Jun-09 02:56S 28°54' E 032°06'0 0.0
2018-Jun-09 02:29S 28°54' E 032°06'0 0.1
2018-Jun-09 01:59S 28°54' E 032°06'0 0.1
2018-Jun-09 01:26S 28°54' E 032°06'0 0.0
2018-Jun-09 00:50S 28°54' E 032°06'0 0.0
2018-Jun-09 00:29S 28°54' E 032°06'0 0.1
2018-Jun-08 23:56S 28°54' E 032°06'0 0.1
2018-Jun-08 23:26S 28°54' E 032°06'0 0.0
2018-Jun-08 22:56S 28°54' E 032°06'0 0.1
2018-Jun-08 22:26S 28°54' E 032°06'0 0.1
2018-Jun-08 21:59S 28°54' E 032°06'0 0.0
2018-Jun-08 21:17S 28°54' E 032°06'0 0.0
2018-Jun-08 18:44S 28°54' E 032°06'0 0.1
2018-Jun-08 18:11S 28°54' E 032°06'0 0.1
2018-Jun-08 17:59S 28°54' E 032°06'0 0.1
2018-Jun-08 17:11S 28°54' E 032°06'  
Track history (hours):
 
Tides and Currents Weather Stations Pressure Air Temp Water Temp Dewpoint Dewpoint Depression Visibility Wind Speed Wind Dir Waves Ship Positions

Prt Vega

Last reported at 2018-Jun-18 16:58 UTC. Time now 2018-Jul-20 16:39 UTC.
Position S 34°18' E 017°36'.
Warning: this ship's position is 31 days out of date.

Length 199 m; draft 9.6 m.

Type: Cargo ship. MMSI: 374946000.

Date/timePositionNaut miles runAvg speedWind from/ knotsBaromVisibWave heightAir tempDewpointWater temp
2018-Jun-18 16:58S 34°18' E 017°36'5 9.6
2018-Jun-18 16:26S 34°21' E 017°42'4 9.5
2018-Jun-18 16:01S 34°22' E 017°46'5 9.2
2018-Jun-18 15:30S 34°24' E 017°51'5 9.4
2018-Jun-18 14:57S 34°26' E 017°57'5 9.5
2018-Jun-18 14:23S 34°29' E 018°03'4 9.2
2018-Jun-18 13:59S 34°30' E 018°07'5 9.1
2018-Jun-18 13:28S 34°32' E 018°12'5 8.8
2018-Jun-18 12:55S 34°34' E 018°18'4 8.7
2018-Jun-18 12:30S 34°35' E 018°22'4 8.7
2018-Jun-18 12:00S 34°37' E 018°26'5 8.9
2018-Jun-18 11:24S 34°39' E 018°32'4 9.1
2018-Jun-18 11:00S 34°41' E 018°36'5 9.3
2018-Jun-18 10:30S 34°43' E 018°41'5 9.1
2018-Jun-18 10:00S 34°45' E 018°47'  
2018-Jun-14 03:21S 30°58' E 030°40'514.1
2018-Jun-14 02:58S 30°53' E 030°44'714.3
2018-Jun-14 02:30S 30°48' E 030°49'714.4
2018-Jun-14 02:00S 30°43' E 030°55'714.3
2018-Jun-14 01:30S 30°37' E 031°00'714.3
2018-Jun-14 01:00S 30°32' E 031°05'714.4
2018-Jun-14 00:30S 30°26' E 031°11'714.5
2018-Jun-14 00:00S 30°21' E 031°16'714.4
2018-Jun-13 23:30S 30°15' E 031°22'713.9
2018-Jun-13 23:00S 30°10' E 031°27'714.0
2018-Jun-13 22:31S 30°05' E 031°32'713.7
2018-Jun-13 22:00S 29°60' E 031°37'714.0
2018-Jun-13 21:30S 29°54' E 031°42'714.0
2018-Jun-13 21:01S 29°49' E 031°47'714.0
2018-Jun-13 20:30S 29°42' E 031°51'713.6
2018-Jun-13 20:00S 29°37' E 031°55'713.7
2018-Jun-13 19:30S 29°30' E 031°58'713.7
2018-Jun-13 19:01S 29°24' E 032°02'714.0
2018-Jun-13 18:30S 29°18' E 032°06'713.9
2018-Jun-13 18:01S 29°12' E 032°09'714.0
2018-Jun-13 17:30S 29°06' E 032°13'1213.4
2018-Jun-13 16:35S 28°53' E 032°14'11 9.1
2018-Jun-13 15:21S 28°48' E 032°03'0 0.7
2018-Jun-13 14:53S 28°48' E 032°03'0 0.0
2018-Jun-13 14:17S 28°48' E 032°03'0 0.0
2018-Jun-13 13:41S 28°48' E 032°03'0 0.0
2018-Jun-13 13:20S 28°48' E 032°03'0 0.0
2018-Jun-13 12:56S 28°48' E 032°03'0 0.0
2018-Jun-13 12:29S 28°48' E 032°03'0 0.0
2018-Jun-13 11:59S 28°48' E 032°03'0 0.0
2018-Jun-13 11:23S 28°48' E 032°03'0 0.0
2018-Jun-13 08:17S 28°48' E 032°03'0 0.0
2018-Jun-13 03:20S 28°48' E 032°03'0 0.0
2018-Jun-13 02:59S 28°48' E 032°03'0 0.0
2018-Jun-13 02:05S 28°48' E 032°03'0 0.0
2018-Jun-13 01:47S 28°48' E 032°03'0 0.0
2018-Jun-13 01:20S 28°48' E 032°03'0 0.0
2018-Jun-13 00:59S 28°48' E 032°03'0 0.0
2018-Jun-13 00:23S 28°48' E 032°03'0 0.0
2018-Jun-12 23:59S 28°48' E 032°03'0 0.0
2018-Jun-12 23:05S 28°48' E 032°03'0 0.0
2018-Jun-12 22:53S 28°48' E 032°03'0 0.0
2018-Jun-12 22:29S 28°48' E 032°03'0 0.0
2018-Jun-12 21:59S 28°48' E 032°03'0 0.0
2018-Jun-12 20:08S 28°48' E 032°03'0 0.0
2018-Jun-12 19:56S 28°48' E 032°03'0 0.0
2018-Jun-12 16:59S 28°48' E 032°03'0 0.0
2018-Jun-12 16:23S 28°48' E 032°03'0 0.0
2018-Jun-12 15:41S 28°48' E 032°03'0 0.0
2018-Jun-12 15:29S 28°48' E 032°03'0 0.0
2018-Jun-12 14:50S 28°48' E 032°03'0 0.0
2018-Jun-12 14:23S 28°48' E 032°03'0 0.0
2018-Jun-12 13:59S 28°48' E 032°03'  
2018-Jun-10 03:50S 28°54' E 032°06'0 0.1
2018-Jun-10 03:29S 28°54' E 032°06'0 0.0
2018-Jun-10 02:44S 28°54' E 032°06'0 0.0
2018-Jun-10 02:08S 28°54' E 032°06'0 0.2
2018-Jun-10 01:59S 28°54' E 032°06'0 0.2
2018-Jun-10 01:26S 28°54' E 032°06'0 0.1
2018-Jun-10 00:56S 28°54' E 032°06'0 0.0
2018-Jun-10 00:29S 28°54' E 032°06'0 0.1
2018-Jun-09 23:59S 28°54' E 032°06'0 0.1
2018-Jun-09 23:29S 28°54' E 032°06'0 0.0
2018-Jun-09 22:59S 28°54' E 032°06'0 0.0
2018-Jun-09 22:26S 28°54' E 032°06'0 0.1
2018-Jun-09 21:56S 28°54' E 032°06'0 0.0
2018-Jun-09 21:26S 28°54' E 032°06'0 0.0
2018-Jun-09 20:59S 28°54' E 032°06'0 0.0
2018-Jun-09 20:29S 28°54' E 032°06'0 0.0
2018-Jun-09 19:59S 28°54' E 032°06'0 0.0
2018-Jun-09 19:29S 28°54' E 032°06'0 0.0
2018-Jun-09 18:59S 28°54' E 032°06'0 0.0
2018-Jun-09 18:29S 28°54' E 032°06'0 0.0
2018-Jun-09 17:59S 28°54' E 032°06'0 0.0
2018-Jun-09 17:29S 28°54' E 032°06'0 0.0
2018-Jun-09 16:59S 28°54' E 032°06'0 0.0
2018-Jun-09 16:29S 28°54' E 032°06'0 0.0
2018-Jun-09 15:56S 28°54' E 032°06'0 0.0
2018-Jun-09 15:29S 28°54' E 032°06'0 0.0
2018-Jun-09 14:29S 28°54' E 032°06'0 0.0
2018-Jun-09 13:56S 28°54' E 032°06'0 0.0
2018-Jun-09 13:29S 28°54' E 032°06'0 0.0
2018-Jun-09 12:59S 28°54' E 032°06'0 0.0
2018-Jun-09 12:26S 28°54' E 032°06'0 0.0
2018-Jun-09 11:56S 28°54' E 032°06'0 0.0
2018-Jun-09 11:29S 28°54' E 032°06'0 0.0
2018-Jun-09 10:59S 28°54' E 032°06'0 0.0
2018-Jun-09 10:29S 28°54' E 032°06'0 0.0
2018-Jun-09 09:59S 28°54' E 032°06'0 0.0
2018-Jun-09 09:29S 28°54' E 032°06'0 0.0
2018-Jun-09 08:56S 28°54' E 032°06'0 0.1
2018-Jun-09 08:29S 28°54' E 032°06'0 0.0
2018-Jun-09 07:59S 28°54' E 032°06'0 0.0
2018-Jun-09 07:29S 28°54' E 032°06'0 0.0
2018-Jun-09 06:59S 28°54' E 032°06'0 0.0
2018-Jun-09 06:29S 28°54' E 032°06'0 0.0
2018-Jun-09 05:59S 28°54' E 032°06'0 0.0
2018-Jun-09 05:29S 28°54' E 032°06'0 0.0
2018-Jun-09 04:50S 28°54' E 032°06'0 0.1
2018-Jun-09 04:29S 28°54' E 032°06'0 0.1
2018-Jun-09 03:59S 28°54' E 032°06'0 0.0
2018-Jun-09 03:29S 28°54' E 032°06'0 0.0
2018-Jun-09 02:56S 28°54' E 032°06'0 0.0
2018-Jun-09 02:29S 28°54' E 032°06'0 0.1
2018-Jun-09 01:59S 28°54' E 032°06'0 0.1
2018-Jun-09 01:26S 28°54' E 032°06'0 0.0
2018-Jun-09 00:50S 28°54' E 032°06'0 0.0
2018-Jun-09 00:29S 28°54' E 032°06'0 0.1
2018-Jun-08 23:56S 28°54' E 032°06'0 0.1
2018-Jun-08 23:26S 28°54' E 032°06'0 0.0
2018-Jun-08 22:56S 28°54' E 032°06'0 0.1
2018-Jun-08 22:26S 28°54' E 032°06'0 0.1
2018-Jun-08 21:59S 28°54' E 032°06'0 0.0
2018-Jun-08 21:17S 28°54' E 032°06'0 0.0
2018-Jun-08 18:44S 28°54' E 032°06'0 0.1
2018-Jun-08 18:11S 28°54' E 032°06'0 0.1
2018-Jun-08 17:59S 28°54' E 032°06'0 0.1
2018-Jun-08 17:11S 28°54' E 032°06'  

Dump ship's entire track history